Red Lake Airport
CYRL : now visible

Airfield :











YOU CAN JOIN US ON...

 
LOGIN :

Register | Disclaimer

   EN    FR    IT 

 









Legend :    VFR   Marginal VFR   IFR   Intensive IFR   Very Intensive IFR
Visi :
Ceiling :
>= 8 km
>= 3000ft
5 to 8 km
1000 to 3000 ft
1500m to 5 km
500 to 1000 ft
800 to 1500m
200 to 500 ft
< 800m
< 200 ft
Symbols :   Thunderstorms  Fog  Heavy snow  Heavy precipitations  Wind > 20 kt






- Airport Elevation : 1265 ft
- IATA code : YRL


CYRL - Red Lake

CURRENT METAR :
  • 082000Z 25012G19KT 230V300 15SM SCT240 26/08 A2983 RMK CI3 SLP103 DENSITY ALT 2900FT

EXPIRED METARs :
  • 081900Z 27014G24KT 15SM FEW050 FEW240 26/08 A2983 RMK CF1CI1 CF TR SLP101 DENSITY ALT 3000FT
  • 081800Z 25015G22KT 15SM FEW060 FEW120 FEW240 26/10 A2983 RMK CU1AC1CI1 CU TR AC TR SLP100 DENSITY ALT 2900FT
  • 081700Z 26011KT 15SM FEW053 FEW080 FEW220 25/12 A2983 RMK CU1AC1CI1 CU TR AC TR SLP102 DENSITY ALT 2900FT

TAF TAF CYRL
Valid from the 08 at 20:00 until the 09 at 02:00 UTC


081938Z 0820/0902 25012G22KT P6SM FEW040 FEW200
BECMG 0900/0902 25008KT RMK NXT FCST WILL BE ISSUED AT 091045Z
CZWG FIR / North America



MET'MAP, your aeronautical weather chart ! - Copyright ORBIFLY December 2007 - Disclaimer

ORBIFLY MET'MAP TEAM :

Programming & Development : Alexandra Zaïnal
Concept & original design : Baudouin d'Aumeries
Assistance for programming : Marc-Olivier Méhu
Technical & hardware support : Manuel Goepfert

Contact : metmap@orbifly.com




SOURCES & CREDITS :

   NOAA       Earth
Advisory